Time;durP1;ratioP1;P1;durP2;ratioP2;P2;SDS_P1;SDS_P2;PMS_P1;PMS_P2;Temp;Humidity;BMP_temperature;BMP_pressure;BME280_temperature;BME280_humidity;BME280_pressure;Samples;Min_cycle;Max_cycle;Signal;HPM_P1;HPM_P2
2021/10/23 00:00:26;;;;;;;22.92;3.25;;;;;;;;;;5014385;28;20408;-85
2021/10/23 00:02:59;;;;;;;15.52;2.13;;;;;;;;;;5019959;28;20275;-85
2021/10/23 00:05:33;;;;;;;14.33;2.50;;;;;;;;;;5028414;28;20432;-85
2021/10/23 00:08:03;;;;;;;14.00;2.20;;;;;;;;;;5009506;28;20057;-83
2021/10/23 00:10:37;;;;;;;24.52;3.22;;;;;;;;;;5019745;28;20140;-84
2021/10/23 00:13:06;;;;;;;;;;;;;;;;;;5033870;28;20109;-85
2021/10/23 00:15:38;;;;;;;14.60;2.55;;;;;;;;;;5035877;28;19921;-84
2021/10/23 00:18:11;;;;;;;15.90;2.28;;;;;;;;;;5022837;28;20147;-84
2021/10/23 00:20:41;;;;;;;31.40;2.78;;;;;;;;;;5014570;28;20041;-84
2021/10/23 00:23:09;;;;;;;13.43;1.92;;;;;;;;;;5021765;28;20250;-84
2021/10/23 00:25:49;;;;;;;18.98;2.25;;;;;;;;;;5010994;28;20123;-84
2021/10/23 00:28:24;;;;;;;15.50;1.98;;;;;;;;;;5021755;28;20050;-84
2021/10/23 00:30:53;;;;;;;16.70;1.77;;;;;;;;;;5020076;28;20102;-84
2021/10/23 00:33:20;;;;;;;13.85;1.60;;;;;;;;;;5015953;28;20065;-84
2021/10/23 00:35:52;;;;;;;17.83;2.30;;;;;;;;;;5031680;28;20038;-84
2021/10/23 00:38:24;;;;;;;16.55;2.35;;;;;;;;;;5025341;28;20200;-84
2021/10/23 00:40:52;;;;;;;15.18;2.25;;;;;;;;;;5040413;28;20348;-84
2021/10/23 00:43:31;;;;;;;17.27;1.85;;;;;;;;;;5022199;28;20136;-84
2021/10/23 00:46:02;;;;;;;17.95;2.65;;;;;;;;;;5012852;28;20518;-84
2021/10/23 00:48:31;;;;;;;19.65;2.45;;;;;;;;;;5027345;28;20266;-84
2021/10/23 00:50:59;;;;;;;17.73;2.00;;;;;;;;;;5028366;28;20049;-84
2021/10/23 00:53:25;;;;;;;12.48;2.53;;;;;;;;;;5025291;28;20049;-84
2021/10/23 00:55:52;;;;;;;12.88;2.25;;;;;;;;;;5023301;28;20421;-84
2021/10/23 00:58:23;;;;;;;23.85;3.35;;;;;;;;;;5040284;28;20332;-83
2021/10/23 01:00:50;;;;;;;14.55;2.33;;;;;;;;;;5021518;28;20049;-83
2021/10/23 01:03:18;;;;;;;14.13;2.10;;;;;;;;;;5020291;28;20045;-83
2021/10/23 01:05:49;;;;;;;10.15;1.83;;;;;;;;;;5037997;28;20055;-85
2021/10/23 01:08:19;;;;;;;16.10;2.22;;;;;;;;;;5022008;28;20053;-84
2021/10/23 01:10:59;;;;;;;12.68;2.03;;;;;;;;;;5038211;28;20191;-84
2021/10/23 01:13:35;;;;;;;14.68;2.15;;;;;;;;;;5053638;28;20072;-86
2021/10/23 01:16:16;;;;;;;20.55;2.85;;;;;;;;;;5052611;28;20451;-84
2021/10/23 01:18:48;;;;;;;11.50;2.17;;;;;;;;;;5053453;28;20045;-84
2021/10/23 01:21:25;;;;;;;13.40;1.73;;;;;;;;;;5022871;28;20106;-84
2021/10/23 01:24:17;;;;;;;14.27;2.15;;;;;;;;;;5038017;28;20119;-84
2021/10/23 01:26:51;;;;;;;7.80;1.52;;;;;;;;;;5038064;28;20114;-83
2021/10/23 01:29:22;;;;;;;16.27;2.17;;;;;;;;;;5020707;28;20072;-84
2021/10/23 01:31:52;;;;;;;12.45;1.95;;;;;;;;;;5038059;28;20133;-84
2021/10/23 01:34:30;;;;;;;9.85;1.75;;;;;;;;;;5022684;28;20099;-85
2021/10/23 01:37:08;;;;;;;12.50;1.85;;;;;;;;;;5053057;28;20113;-84
2021/10/23 01:39:41;;;;;;;16.23;2.47;;;;;;;;;;5053504;28;20085;-85
2021/10/23 01:42:16;;;;;;;18.85;2.20;;;;;;;;;;5052339;28;20413;-85
2021/10/23 01:44:51;;;;;;;22.00;2.20;;;;;;;;;;5039311;28;20144;-85
2021/10/23 01:47:26;;;;;;;11.32;1.77;;;;;;;;;;5022534;28;20382;-85
2021/10/23 01:50:00;;;;;;;16.30;2.20;;;;;;;;;;5038886;28;20057;-84
2021/10/23 01:52:48;;;;;;;22.42;2.75;;;;;;;;;;5036288;28;20054;-84
2021/10/23 01:55:18;;;;;;;10.68;1.85;;;;;;;;;;5037994;28;20076;-85
2021/10/23 01:58:01;;;;;;;21.67;2.30;;;;;;;;;;5053929;28;20080;-84
2021/10/23 02:00:39;;;;;;;11.48;1.95;;;;;;;;;;5038681;28;20056;-84
2021/10/23 02:03:06;;;;;;;17.85;1.70;;;;;;;;;;5037605;28;20117;-84
2021/10/23 02:06:01;;;;;;;19.70;3.67;;;;;;;;;;5021890;28;20421;-84
2021/10/23 02:08:28;;;;;;;20.38;1.83;;;;;;;;;;5026585;28;20081;-84
2021/10/23 02:10:56;;;;;;;15.98;1.88;;;;;;;;;;5024663;28;20053;-84
2021/10/23 02:13:28;;;;;;;11.55;1.98;;;;;;;;;;5038570;28;20298;-84
2021/10/23 02:15:54;;;;;;;18.40;2.28;;;;;;;;;;5020851;28;20056;-84
2021/10/23 02:18:21;;;;;;;18.45;2.35;;;;;;;;;;5037497;28;20049;-85
2021/10/23 02:20:51;;;;;;;13.35;2.53;;;;;;;;;;5021897;28;20295;-85
2021/10/23 02:23:18;;;;;;;12.32;1.58;;;;;;;;;;5021487;28;20057;-84
2021/10/23 02:25:46;;;;;;;16.33;2.08;;;;;;;;;;5021996;28;20543;-84
2021/10/23 02:28:14;;;;;;;15.60;1.83;;;;;;;;;;5022264;28;20340;-85
2021/10/23 02:30:41;;;;;;;18.42;2.15;;;;;;;;;;5039881;28;20140;-85
2021/10/23 02:33:07;;;;;;;11.65;1.83;;;;;;;;;;5039352;28;20096;-85
2021/10/23 02:35:36;;;;;;;16.27;2.60;;;;;;;;;;5020041;28;20113;-85
2021/10/23 02:38:04;;;;;;;17.95;2.50;;;;;;;;;;5022138;28;20409;-85
2021/10/23 02:40:42;;;;;;;18.55;2.05;;;;;;;;;;5023085;28;20046;-85
2021/10/23 02:43:13;;;;;;;16.00;2.05;;;;;;;;;;5021951;28;20049;-85
2021/10/23 02:45:41;;;;;;;12.70;1.58;;;;;;;;;;5021780;28;20049;-85
2021/10/23 02:48:08;;;;;;;11.55;1.75;;;;;;;;;;5007688;28;20104;-85
2021/10/23 02:50:37;;;;;;;20.52;2.95;;;;;;;;;;5023502;28;20105;-85
2021/10/23 02:53:04;;;;;;;13.00;2.30;;;;;;;;;;5041009;28;20136;-85
2021/10/23 02:55:33;;;;;;;13.50;2.08;;;;;;;;;;5040807;28;20064;-85
2021/10/23 02:58:07;;;;;;;13.57;2.00;;;;;;;;;;5023301;28;20053;-85
2021/10/23 03:00:41;;;;;;;14.85;1.83;;;;;;;;;;5025033;28;20184;-85
2021/10/23 03:03:36;;;;;;;8.60;1.38;;;;;;;;;;5042485;28;20056;-85
2021/10/23 03:06:17;;;;;;;11.52;1.67;;;;;;;;;;5024681;28;20045;-85
2021/10/23 03:08:59;;;;;;;15.15;2.05;;;;;;;;;;5023979;28;20049;-85
2021/10/23 03:11:35;;;;;;;14.30;2.13;;;;;;;;;;5005985;28;20045;-85
2021/10/23 03:17:25;;;;;;;17.27;1.70;;;;;;;;;;4989615;28;20399;-83
2021/10/23 03:20:20;;;;;;;11.15;1.88;;;;;;;;;;5028067;28;20141;-84
2021/10/23 03:23:18;;;;;;;;;;;;;;;;;;;;;
2021/10/23 03:25:58;;;;;;;8.80;1.70;;;;;;;;;;5027075;28;20058;-84
2021/10/23 03:29:10;;;;;;;;;;;;;;;;;;;;;
2021/10/23 03:31:46;;;;;;;;;;;;;;;;;;5030913;28;20132;-84
2021/10/23 03:37:22;;;;;;;9.80;2.00;;;;;;;;;;5024787;28;20342;-85
2021/10/23 03:40:05;;;;;;;17.48;2.08;;;;;;;;;;5006275;28;20101;-84
2021/10/23 03:42:55;;;;;;;;;;;;;;;;;;;;;
2021/10/23 03:45:53;;;;;;;21.33;2.97;;;;;;;;;;5039283;28;20045;-85
2021/10/23 03:48:38;;;;;;;13.32;1.95;;;;;;;;;;5025930;28;20425;-85
2021/10/23 03:51:17;;;;;;;15.35;2.03;;;;;;;;;;5025270;28;20116;-86
2021/10/23 03:53:51;;;;;;;11.02;1.83;;;;;;;;;;5040812;28;20148;-85
2021/10/23 03:56:35;;;;;;;13.82;1.70;;;;;;;;;;5024821;28;20228;-86
2021/10/23 03:59:12;;;;;;;15.25;2.70;;;;;;;;;;5024842;28;20103;-86
2021/10/23 04:01:42;;;;;;;11.75;2.15;;;;;;;;;;5041064;28;20081;-85
2021/10/23 04:04:15;;;;;;;16.52;1.95;;;;;;;;;;5023870;28;20053;-85
2021/10/23 04:06:56;;;;;;;18.88;2.35;;;;;;;;;;5024105;28;20059;-85
2021/10/23 04:09:26;;;;;;;15.45;1.73;;;;;;;;;;5024749;28;20045;-85
2021/10/23 04:12:01;;;;;;;12.40;1.88;;;;;;;;;;5025184;28;20053;-85
2021/10/23 04:14:35;;;;;;;11.20;1.80;;;;;;;;;;5022764;28;20112;-85
2021/10/23 04:17:06;;;;;;;20.55;2.00;;;;;;;;;;5039075;28;20049;-85
2021/10/23 04:19:45;;;;;;;17.50;1.92;;;;;;;;;;5022960;28;20112;-85
2021/10/23 04:22:20;;;;;;;10.63;1.90;;;;;;;;;;5022692;28;20459;-85
2021/10/23 04:25:05;;;;;;;21.60;2.38;;;;;;;;;;5025062;28;20107;-85
2021/10/23 04:27:48;;;;;;;12.75;1.75;;;;;;;;;;5039729;28;20111;-85
2021/10/23 04:30:22;;;;;;;9.95;1.55;;;;;;;;;;5021340;28;20053;-85
2021/10/23 04:32:56;;;;;;;21.85;2.10;;;;;;;;;;5019978;28;20061;-85
2021/10/23 04:35:37;;;;;;;;;;;;;;;;;;;;;
2021/10/23 04:38:11;;;;;;;16.38;2.42;;;;;;;;;;5038349;28;20060;-86
2021/10/23 04:40:42;;;;;;;13.75;2.13;;;;;;;;;;5021592;28;20061;-85
2021/10/23 04:43:13;;;;;;;15.45;2.20;;;;;;;;;;5021940;28;20356;-85
2021/10/23 04:46:08;;;;;;;14.10;2.63;;;;;;;;;;5039269;28;20123;-86
2021/10/23 04:48:42;;;;;;;15.73;2.05;;;;;;;;;;5039912;28;20053;-84
2021/10/23 04:51:12;;;;;;;16.25;1.70;;;;;;;;;;5038176;28;20310;-84
2021/10/23 04:53:46;;;;;;;14.05;2.17;;;;;;;;;;5023350;28;20056;-85
2021/10/23 04:56:20;;;;;;;14.05;1.88;;;;;;;;;;5039980;28;20111;-84
2021/10/23 04:58:55;;;;;;;21.88;2.40;;;;;;;;;;5037032;28;20099;-84
2021/10/23 05:01:37;;;;;;;12.95;1.70;;;;;;;;;;5021138;28;20059;-84
2021/10/23 05:04:13;;;;;;;11.88;1.70;;;;;;;;;;5021090;28;20103;-85
2021/10/23 05:06:43;;;;;;;24.38;1.90;;;;;;;;;;5021625;28;20045;-85
2021/10/23 05:09:12;;;;;;;11.05;1.48;;;;;;;;;;5021872;28;20064;-85
2021/10/23 05:11:46;;;;;;;10.60;1.60;;;;;;;;;;5022463;28;20045;-85
2021/10/23 05:14:18;;;;;;;12.57;1.65;;;;;;;;;;5038356;28;20057;-85
2021/10/23 05:16:45;;;;;;;11.57;1.88;;;;;;;;;;5038304;28;20165;-85
2021/10/23 05:19:15;;;;;;;20.10;1.98;;;;;;;;;;5021452;28;20133;-84
2021/10/23 05:21:45;;;;;;;13.55;1.92;;;;;;;;;;5020483;28;20061;-84
2021/10/23 05:24:12;;;;;;;11.65;2.90;;;;;;;;;;5019587;28;20075;-85
2021/10/23 05:26:41;;;;;;;12.65;1.85;;;;;;;;;;5021358;28;20341;-84
2021/10/23 05:29:08;;;;;;;15.65;2.20;;;;;;;;;;5053163;28;20209;-84
2021/10/23 05:31:36;;;;;;;17.92;2.72;;;;;;;;;;5019937;28;20341;-84
2021/10/23 05:34:12;;;;;;;17.77;2.15;;;;;;;;;;5036359;28;20154;-84
2021/10/23 05:36:39;;;;;;;13.02;1.75;;;;;;;;;;5036789;28;20357;-84
2021/10/23 05:39:11;;;;;;;16.98;2.17;;;;;;;;;;5019211;28;20053;-84
2021/10/23 05:41:38;;;;;;;11.50;1.73;;;;;;;;;;5019338;28;20081;-84
2021/10/23 05:44:06;;;;;;;13.90;1.70;;;;;;;;;;5020316;28;20064;-85
2021/10/23 05:46:33;;;;;;;12.75;2.05;;;;;;;;;;5019687;28;20050;-87
2021/10/23 05:48:59;;;;;;;18.13;1.83;;;;;;;;;;5044629;28;20061;-86
2021/10/23 05:51:27;;;;;;;18.90;2.10;;;;;;;;;;5027505;28;20116;-86
2021/10/23 05:53:54;;;;;;;11.85;1.80;;;;;;;;;;5043244;28;20403;-87
2021/10/23 05:56:23;;;;;;;16.83;1.67;;;;;;;;;;5046142;28;20173;-86
2021/10/23 05:58:59;;;;;;;15.32;1.65;;;;;;;;;;5039385;28;20088;-86
2021/10/23 06:01:30;;;;;;;18.30;2.40;;;;;;;;;;5021738;28;20289;-87
2021/10/23 06:03:57;;;;;;;19.23;2.22;;;;;;;;;;5020055;28;20049;-86
2021/10/23 06:06:25;;;;;;;15.95;1.88;;;;;;;;;;5019951;28;20049;-86
2021/10/23 06:08:52;;;;;;;17.08;2.38;;;;;;;;;;5018770;28;20115;-85
2021/10/23 06:11:18;;;;;;;14.80;2.35;;;;;;;;;;5020653;28;20069;-86
2021/10/23 06:13:47;;;;;;;11.73;1.95;;;;;;;;;;5015187;28;20057;-85
2021/10/23 06:16:21;;;;;;;12.52;2.40;;;;;;;;;;5017839;28;20068;-86
2021/10/23 06:18:48;;;;;;;15.65;2.25;;;;;;;;;;5020844;28;20126;-85
2021/10/23 06:21:18;;;;;;;23.73;2.60;;;;;;;;;;5013429;28;20065;-85
2021/10/23 06:23:45;;;;;;;20.15;2.65;;;;;;;;;;5006704;28;20399;-87
2021/10/23 06:26:19;;;;;;;16.10;2.25;;;;;;;;;;5017442;28;20111;-85
2021/10/23 06:28:46;;;;;;;14.02;1.83;;;;;;;;;;4998369;28;20050;-86
2021/10/23 06:31:25;;;;;;;15.18;1.65;;;;;;;;;;5017087;28;20073;-88
2021/10/23 06:33:57;;;;;;;17.80;2.10;;;;;;;;;;5016442;28;20069;-87
2021/10/23 06:36:27;;;;;;;13.77;2.50;;;;;;;;;;5035843;28;20154;-86
2021/10/23 06:39:00;;;;;;;10.45;1.67;;;;;;;;;;5018780;28;20464;-86
2021/10/23 06:41:27;;;;;;;14.38;1.98;;;;;;;;;;5018121;28;20058;-86
2021/10/23 06:44:04;;;;;;;10.30;1.67;;;;;;;;;;5019412;28;20296;-85
2021/10/23 06:46:31;;;;;;;8.43;1.30;;;;;;;;;;5019260;28;20053;-87
2021/10/23 06:48:58;;;;;;;16.67;1.92;;;;;;;;;;5018155;28;20121;-85
2021/10/23 06:51:25;;;;;;;16.23;2.47;;;;;;;;;;5019112;28;20135;-85
2021/10/23 06:53:54;;;;;;;13.30;1.92;;;;;;;;;;5003134;28;20056;-85
2021/10/23 06:56:21;;;;;;;12.52;1.63;;;;;;;;;;5021995;28;20060;-86
2021/10/23 06:58:52;;;;;;;8.02;1.50;;;;;;;;;;5038440;28;20053;-86
2021/10/23 07:01:25;;;;;;;9.50;1.65;;;;;;;;;;5036161;28;20122;-86
2021/10/23 07:03:53;;;;;;;14.13;2.20;;;;;;;;;;5020638;28;20053;-86
2021/10/23 07:06:20;;;;;;;10.70;1.90;;;;;;;;;;5020888;28;20053;-87
2021/10/23 07:08:47;;;;;;;12.82;1.67;;;;;;;;;;5021931;28;20053;-85
2021/10/23 07:11:14;;;;;;;9.45;1.80;;;;;;;;;;5015411;28;20053;-85
2021/10/23 07:13:44;;;;;;;5.53;1.15;;;;;;;;;;5020909;28;20144;-86
2021/10/23 07:16:11;;;;;;;12.02;1.23;;;;;;;;;;5020072;28;20045;-86
2021/10/23 07:18:39;;;;;;;13.32;1.77;;;;;;;;;;5040194;28;20049;-86
2021/10/23 07:21:13;;;;;;;10.52;1.73;;;;;;;;;;5022456;28;20323;-86
2021/10/23 07:23:59;;;;;;;9.60;1.25;;;;;;;;;;5020906;28;20416;-86
2021/10/23 07:26:28;;;;;;;12.57;1.38;;;;;;;;;;5019651;28;20053;-87
2021/10/23 07:29:12;;;;;;;7.85;1.70;;;;;;;;;;5019433;28;20061;-87
2021/10/23 07:32:03;;;;;;;8.95;1.92;;;;;;;;;;5021932;28;20282;-86
2021/10/23 07:34:52;;;;;;;10.07;1.77;;;;;;;;;;4981761;28;20068;-87
2021/10/23 07:48:43;;;;;;;10.35;1.40;;;;;;;;;;4868728;29;20294;-88
2021/10/23 07:54:35;;;;;;;8.13;1.05;;;;;;;;;;4863398;29;20059;-87
2021/10/23 07:57:24;;;;;;;12.00;1.48;;;;;;;;;;4875886;29;20057;-87
2021/10/23 08:00:12;;;;;;;9.85;2.17;;;;;;;;;;4872499;29;20053;-86
2021/10/23 08:02:57;;;;;;;6.85;1.38;;;;;;;;;;4879332;29;20129;-86
2021/10/23 08:05:42;;;;;;;8.68;1.60;;;;;;;;;;4898042;29;20048;-86
2021/10/23 08:08:08;;;;;;;18.52;1.65;;;;;;;;;;4903974;29;20369;-85
2021/10/23 08:10:36;;;;;;;9.23;1.63;;;;;;;;;;4916509;29;20222;-85
2021/10/23 08:13:08;;;;;;;9.13;1.88;;;;;;;;;;4916068;29;20076;-85
2021/10/23 08:15:37;;;;;;;11.45;2.47;;;;;;;;;;4940423;28;20050;-84
2021/10/23 08:18:03;;;;;;;9.23;1.00;;;;;;;;;;4971505;28;20235;-84
2021/10/23 08:20:31;;;;;;;10.80;1.70;;;;;;;;;;4958113;28;20348;-84
2021/10/23 08:22:59;;;;;;;7.57;0.95;;;;;;;;;;4995017;28;20304;-83
2021/10/23 08:25:26;;;;;;;6.88;1.33;;;;;;;;;;4978126;28;20074;-83
2021/10/23 08:27:53;;;;;;;7.07;1.52;;;;;;;;;;4963720;28;20059;-83
2021/10/23 08:30:19;;;;;;;10.82;1.27;;;;;;;;;;4993848;28;20115;-84
2021/10/23 08:32:49;;;;;;;10.20;1.38;;;;;;;;;;4974075;28;20187;-83
2021/10/23 08:35:17;;;;;;;11.68;1.55;;;;;;;;;;4973110;28;20047;-83
2021/10/23 08:37:44;;;;;;;9.93;1.88;;;;;;;;;;4971528;28;20117;-82
2021/10/23 08:40:14;;;;;;;8.85;1.42;;;;;;;;;;4974459;28;20074;-83
2021/10/23 08:42:47;;;;;;;7.72;1.77;;;;;;;;;;4954794;28;20059;-83
2021/10/23 08:45:15;;;;;;;12.07;1.55;;;;;;;;;;4954735;28;20051;-84
2021/10/23 08:47:42;;;;;;;9.93;1.42;;;;;;;;;;4965961;28;20269;-84
2021/10/23 08:50:15;;;;;;;7.65;1.15;;;;;;;;;;4971650;28;20114;-84
2021/10/23 08:52:44;;;;;;;7.32;1.13;;;;;;;;;;4953958;28;20106;-84
2021/10/23 08:55:11;;;;;;;14.18;2.72;;;;;;;;;;4953401;28;20054;-84
2021/10/23 08:57:37;;;;;;;9.38;1.65;;;;;;;;;;4945661;29;20051;-84
2021/10/23 09:00:05;;;;;;;9.32;1.33;;;;;;;;;;4936531;29;20598;-84
2021/10/23 09:02:32;;;;;;;7.47;1.23;;;;;;;;;;4951276;29;20165;-83
2021/10/23 09:05:02;;;;;;;5.80;1.80;;;;;;;;;;4951616;29;20166;-82
2021/10/23 09:07:33;;;;;;;7.97;1.25;;;;;;;;;;4955627;28;20104;-83
2021/10/23 09:10:05;;;;;;;9.85;1.30;;;;;;;;;;5003537;28;20065;-83
2021/10/23 09:12:33;;;;;;;9.38;1.33;;;;;;;;;;5026857;28;20045;-83
2021/10/23 09:15:10;;;;;;;8.88;1.58;;;;;;;;;;5012200;28;20153;-83
2021/10/23 09:17:40;;;;;;;7.38;1.40;;;;;;;;;;5010274;28;20049;-83
2021/10/23 09:20:11;;;;;;;7.88;1.10;;;;;;;;;;5010109;28;20046;-83
2021/10/23 09:22:38;;;;;;;10.55;1.95;;;;;;;;;;5009106;28;20050;-81
2021/10/23 09:25:09;;;;;;;5.32;1.13;;;;;;;;;;5009629;28;20050;-82
2021/10/23 09:27:44;;;;;;;8.73;1.38;;;;;;;;;;4990556;28;20085;-81
2021/10/23 09:30:12;;;;;;;6.82;0.85;;;;;;;;;;4995980;28;20081;-82
2021/10/23 09:32:38;;;;;;;8.65;1.20;;;;;;;;;;5006498;28;20104;-82
2021/10/23 09:35:19;;;;;;;4.72;1.15;;;;;;;;;;5006965;28;20433;-81
2021/10/23 09:37:47;;;;;;;6.32;1.55;;;;;;;;;;4975482;28;20054;-82
2021/10/23 09:40:20;;;;;;;6.03;1.45;;;;;;;;;;4987790;28;20112;-81
2021/10/23 09:43:02;;;;;;;4.68;1.35;;;;;;;;;;4998182;28;20061;-82
2021/10/23 09:45:29;;;;;;;7.32;1.70;;;;;;;;;;5016098;28;20051;-82
2021/10/23 09:48:04;;;;;;;5.25;1.20;;;;;;;;;;5006759;28;20325;-83
2021/10/23 09:50:35;;;;;;;7.57;1.10;;;;;;;;;;5027781;28;20049;-83
2021/10/23 09:53:06;;;;;;;9.40;1.10;;;;;;;;;;5041380;28;20170;-83
2021/10/23 09:55:34;;;;;;;10.13;1.95;;;;;;;;;;5026376;28;20057;-83
2021/10/23 09:58:05;;;;;;;7.03;1.08;;;;;;;;;;5021617;28;20597;-83
2021/10/23 10:00:32;;;;;;;4.88;1.23;;;;;;;;;;5009276;28;20049;-81
2021/10/23 10:02:59;;;;;;;5.50;1.45;;;;;;;;;;5024352;28;20249;-81
2021/10/23 10:05:28;;;;;;;8.65;1.42;;;;;;;;;;5023863;28;20049;-83
2021/10/23 10:07:56;;;;;;;7.25;1.25;;;;;;;;;;5024078;28;20399;-83
2021/10/23 10:10:27;;;;;;;11.18;1.40;;;;;;;;;;5022420;28;20298;-83
2021/10/23 10:12:55;;;;;;;9.57;1.20;;;;;;;;;;5006707;28;20077;-83
2021/10/23 10:15:26;;;;;;;9.20;0.90;;;;;;;;;;5004336;28;20119;-83
2021/10/23 10:17:52;;;;;;;8.02;1.30;;;;;;;;;;5007803;28;20115;-83
2021/10/23 10:20:19;;;;;;;11.70;1.42;;;;;;;;;;5011225;28;20046;-83
2021/10/23 10:22:50;;;;;;;7.65;1.20;;;;;;;;;;5007676;28;20132;-83
2021/10/23 10:25:22;;;;;;;8.52;1.17;;;;;;;;;;5019233;28;20477;-83
2021/10/23 10:27:49;;;;;;;13.27;1.75;;;;;;;;;;5012420;28;20059;-82
2021/10/23 10:30:36;;;;;;;8.30;1.70;;;;;;;;;;5013645;28;20401;-82
2021/10/23 10:33:02;;;;;;;;;;;;;;;;;;5030859;28;20144;-82
2021/10/23 10:44:11;;;;;;;4.55;0.90;;;;;;;;;;5000589;28;20353;-82
2021/10/23 10:46:57;;;;;;;8.25;1.48;;;;;;;;;;5026329;28;20094;-83
2021/10/23 10:49:46;;;;;;;10.90;1.40;;;;;;;;;;5014233;28;20134;-83
2021/10/23 10:52:31;;;;;;;8.00;1.27;;;;;;;;;;5013376;28;20149;-82
2021/10/23 10:55:17;;;;;;;6.60;1.40;;;;;;;;;;5031958;28;20053;-82
2021/10/23 10:57:54;;;;;;;4.40;0.97;;;;;;;;;;5017558;28;20107;-82
2021/10/23 11:00:20;;;;;;;12.38;1.20;;;;;;;;;;5012090;28;20200;-82
2021/10/23 11:02:47;;;;;;;4.70;1.02;;;;;;;;;;5012124;28;20042;-81
2021/10/23 11:05:20;;;;;;;9.95;1.50;;;;;;;;;;5020165;28;20496;-81
2021/10/23 11:08:04;;;;;;;5.45;1.17;;;;;;;;;;5011961;28;20045;-81
2021/10/23 11:10:55;;;;;;;5.15;1.17;;;;;;;;;;5029434;28;20108;-81
2021/10/23 11:13:23;;;;;;;8.00;1.35;;;;;;;;;;5009515;28;20045;-82
2021/10/23 11:15:51;;;;;;;10.02;0.90;;;;;;;;;;5028111;28;20053;-81
2021/10/23 11:18:18;;;;;;;7.57;1.13;;;;;;;;;;5011383;28;20547;-81
2021/10/23 11:20:45;;;;;;;6.38;1.10;;;;;;;;;;5011099;28;20204;-81
2021/10/23 11:23:21;;;;;;;9.70;1.73;;;;;;;;;;5028568;28;20057;-81
2021/10/23 11:25:48;;;;;;;9.20;1.38;;;;;;;;;;5028195;28;20115;-82
2021/10/23 11:28:20;;;;;;;4.53;0.80;;;;;;;;;;5007893;28;20510;-82
2021/10/23 11:30:48;;;;;;;10.55;1.27;;;;;;;;;;5004986;28;20041;-82
2021/10/23 11:33:17;;;;;;;6.32;1.05;;;;;;;;;;4992516;28;20072;-82
2021/10/23 11:35:51;;;;;;;7.68;1.50;;;;;;;;;;5004580;28;20111;-82
2021/10/23 11:38:26;;;;;;;8.15;1.27;;;;;;;;;;5025578;28;20060;-82
2021/10/23 11:40:54;;;;;;;5.25;1.08;;;;;;;;;;4989381;28;20056;-82
2021/10/23 11:43:21;;;;;;;7.18;1.27;;;;;;;;;;4989629;28;20351;-82
2021/10/23 11:45:51;;;;;;;5.20;1.10;;;;;;;;;;5008079;28;20060;-82
2021/10/23 11:48:18;;;;;;;8.98;1.23;;;;;;;;;;4990361;28;20050;-82
2021/10/23 11:50:46;;;;;;;6.68;1.45;;;;;;;;;;5007665;28;20088;-82
2021/10/23 11:53:18;;;;;;;7.00;0.95;;;;;;;;;;5008517;28;20077;-81
2021/10/23 11:55:47;;;;;;;6.80;1.00;;;;;;;;;;5009952;28;20347;-82
2021/10/23 11:58:15;;;;;;;7.72;1.05;;;;;;;;;;4993871;28;20053;-81
2021/10/23 12:00:44;;;;;;;9.90;1.50;;;;;;;;;;5020082;28;20092;-81
2021/10/23 12:03:15;;;;;;;4.97;1.00;;;;;;;;;;5026013;28;20049;-81
2021/10/23 12:05:42;;;;;;;8.00;1.15;;;;;;;;;;5035243;28;20067;-81
2021/10/23 12:08:18;;;;;;;8.63;1.10;;;;;;;;;;5008926;28;20199;-81
2021/10/23 12:11:06;;;;;;;9.32;1.33;;;;;;;;;;5025241;28;20321;-81
2021/10/23 12:13:55;;;;;;;5.60;1.17;;;;;;;;;;4991470;28;20054;-82
2021/10/23 12:16:40;;;;;;;6.68;1.00;;;;;;;;;;5008774;28;20077;-81
2021/10/23 12:19:16;;;;;;;5.50;1.17;;;;;;;;;;5008442;28;20489;-81
2021/10/23 12:22:05;;;;;;;7.97;1.10;;;;;;;;;;5016975;28;20151;-83
2021/10/23 12:24:32;;;;;;;6.10;1.17;;;;;;;;;;5008786;28;20302;-81
2021/10/23 12:27:11;;;;;;;11.57;1.85;;;;;;;;;;4997871;28;20041;-81
2021/10/23 12:29:38;;;;;;;8.65;1.13;;;;;;;;;;5009494;28;20091;-82
2021/10/23 12:32:06;;;;;;;7.40;1.00;;;;;;;;;;5011308;28;20048;-82
2021/10/23 12:34:51;;;;;;;6.05;0.88;;;;;;;;;;5030414;28;20053;-82
2021/10/23 12:37:26;;;;;;;12.45;1.30;;;;;;;;;;5027666;28;20394;-80
2021/10/23 12:40:13;;;;;;;11.20;1.50;;;;;;;;;;5010482;28;20041;-81
2021/10/23 12:42:44;;;;;;;7.05;1.00;;;;;;;;;;5009508;28;20159;-82
2021/10/23 12:45:12;;;;;;;5.82;0.98;;;;;;;;;;5009397;28;20144;-81
2021/10/23 12:47:39;;;;;;;8.43;1.38;;;;;;;;;;5027287;28;20445;-80
2021/10/23 12:50:07;;;;;;;9.68;1.20;;;;;;;;;;5027985;28;20054;-81
2021/10/23 12:52:36;;;;;;;8.52;0.90;;;;;;;;;;5010160;28;20554;-82
2021/10/23 12:55:04;;;;;;;7.43;1.30;;;;;;;;;;5008354;28;20053;-81
2021/10/23 12:57:31;;;;;;;6.63;1.05;;;;;;;;;;5028670;28;20085;-80
2021/10/23 13:00:00;;;;;;;7.20;1.33;;;;;;;;;;5008992;28;20053;-80
2021/10/23 13:02:26;;;;;;;6.45;0.93;;;;;;;;;;5025827;28;20046;-81
2021/10/23 13:04:54;;;;;;;7.82;1.55;;;;;;;;;;5027629;28;20053;-81
2021/10/23 13:07:22;;;;;;;8.65;1.42;;;;;;;;;;5010301;28;20238;-81
2021/10/23 13:09:48;;;;;;;8.35;1.92;;;;;;;;;;5022656;28;20299;-81
2021/10/23 13:12:18;;;;;;;7.45;1.17;;;;;;;;;;5024351;28;20053;-81
2021/10/23 13:14:48;;;;;;;10.90;1.63;;;;;;;;;;5057815;28;20241;-81
2021/10/23 13:17:15;;;;;;;4.28;0.88;;;;;;;;;;5078035;28;20068;-81
2021/10/23 13:19:42;;;;;;;6.57;1.13;;;;;;;;;;5077434;28;20051;-82
2021/10/23 13:22:15;;;;;;;7.07;1.30;;;;;;;;;;5033678;28;20299;-82
2021/10/23 13:24:42;;;;;;;10.82;0.98;;;;;;;;;;5010252;28;20053;-82
2021/10/23 13:27:08;;;;;;;6.88;1.23;;;;;;;;;;5012485;28;20160;-82
2021/10/23 13:29:45;;;;;;;9.95;1.23;;;;;;;;;;5007926;28;20068;-82
2021/10/23 13:32:18;;;;;;;9.70;1.35;;;;;;;;;;5023069;28;20049;-82
2021/10/23 13:34:45;;;;;;;6.20;1.10;;;;;;;;;;5010218;28;20053;-82
2021/10/23 13:37:13;;;;;;;5.03;0.85;;;;;;;;;;5009557;28;20362;-82
2021/10/23 13:39:40;;;;;;;6.75;1.13;;;;;;;;;;5026745;28;20111;-82
2021/10/23 13:42:10;;;;;;;6.70;1.08;;;;;;;;;;5025612;28;20053;-82
2021/10/23 13:44:38;;;;;;;5.47;1.40;;;;;;;;;;5008546;28;20467;-82
2021/10/23 13:47:04;;;;;;;7.70;1.50;;;;;;;;;;5026640;28;20136;-82
2021/10/23 13:49:31;;;;;;;9.90;1.40;;;;;;;;;;5027301;28;20437;-82
2021/10/23 13:51:58;;;;;;;8.40;1.30;;;;;;;;;;5027493;28;20106;-82
2021/10/23 13:54:25;;;;;;;7.00;1.20;;;;;;;;;;5044913;28;20052;-82
2021/10/23 13:56:52;;;;;;;8.00;1.10;;;;;;;;;;5008653;28;20057;-81
2021/10/23 13:59:18;;;;;;;4.78;1.10;;;;;;;;;;5009272;28;20049;-81
2021/10/23 14:01:46;;;;;;;5.90;0.95;;;;;;;;;;5014020;28;20218;-81
2021/10/23 14:04:14;;;;;;;5.50;0.85;;;;;;;;;;5008988;28;20053;-81
2021/10/23 14:06:41;;;;;;;3.88;0.90;;;;;;;;;;5027231;28;20048;-81
2021/10/23 14:09:11;;;;;;;10.60;1.60;;;;;;;;;;5011792;28;20108;-81
2021/10/23 14:11:38;;;;;;;9.00;1.23;;;;;;;;;;5013440;28;20072;-81
2021/10/23 14:14:05;;;;;;;6.60;1.00;;;;;;;;;;5009811;28;20057;-81
2021/10/23 14:16:32;;;;;;;7.53;1.65;;;;;;;;;;5011631;28;20046;-81
2021/10/23 14:18:59;;;;;;;7.22;1.25;;;;;;;;;;5007347;28;20047;-82
2021/10/23 14:21:26;;;;;;;4.47;1.00;;;;;;;;;;5009016;28;20064;-81
2021/10/23 14:23:57;;;;;;;6.13;1.50;;;;;;;;;;5026525;28;20294;-82
2021/10/23 14:26:24;;;;;;;7.18;1.02;;;;;;;;;;5029116;28;20149;-83
2021/10/23 14:28:51;;;;;;;4.28;1.00;;;;;;;;;;5014795;28;20540;-82
2021/10/23 14:31:19;;;;;;;4.85;0.90;;;;;;;;;;5013610;28;20125;-82
2021/10/23 14:33:47;;;;;;;10.02;1.23;;;;;;;;;;5028277;28;20045;-82
2021/10/23 14:36:14;;;;;;;7.50;1.02;;;;;;;;;;5013275;28;20115;-82
2021/10/23 14:38:42;;;;;;;5.40;0.90;;;;;;;;;;5023310;28;20116;-82
2021/10/23 14:41:09;;;;;;;9.32;1.40;;;;;;;;;;4990738;28;20050;-81
2021/10/23 14:43:38;;;;;;;6.38;1.60;;;;;;;;;;5026558;28;20065;-81
2021/10/23 14:46:06;;;;;;;6.40;1.63;;;;;;;;;;5029276;28;20171;-82
2021/10/23 14:48:33;;;;;;;7.57;1.42;;;;;;;;;;5029653;28;20166;-82
2021/10/23 14:51:01;;;;;;;10.25;1.27;;;;;;;;;;5051811;28;20088;-82
2021/10/23 14:53:28;;;;;;;6.57;1.17;;;;;;;;;;5019819;28;20033;-81
2021/10/23 14:55:55;;;;;;;6.90;1.23;;;;;;;;;;5038553;28;20053;-81
2021/10/23 14:58:22;;;;;;;3.95;0.80;;;;;;;;;;5024037;28;20140;-81
2021/10/23 15:00:49;;;;;;;4.47;0.85;;;;;;;;;;5011605;28;20539;-81
2021/10/23 15:03:16;;;;;;;6.20;1.20;;;;;;;;;;5005554;28;20454;-80
2021/10/23 15:05:45;;;;;;;4.15;0.85;;;;;;;;;;5025927;28;20310;-81
2021/10/23 15:08:15;;;;;;;7.68;1.27;;;;;;;;;;5025903;28;20158;-81
2021/10/23 15:10:45;;;;;;;8.45;0.95;;;;;;;;;;5018449;28;20191;-80
2021/10/23 15:13:13;;;;;;;4.65;1.00;;;;;;;;;;5002073;28;20422;-80
2021/10/23 15:15:40;;;;;;;7.40;1.10;;;;;;;;;;5006895;28;20151;-81
2021/10/23 15:18:07;;;;;;;8.30;1.60;;;;;;;;;;5026754;28;20144;-81
2021/10/23 15:20:34;;;;;;;7.47;1.70;;;;;;;;;;5009386;28;20092;-81
2021/10/23 15:23:08;;;;;;;5.03;1.17;;;;;;;;;;5025958;28;20072;-81
2021/10/23 15:25:35;;;;;;;7.88;1.13;;;;;;;;;;5026826;28;20057;-81
2021/10/23 15:28:03;;;;;;;9.63;1.42;;;;;;;;;;5008592;28;20084;-81
2021/10/23 15:30:30;;;;;;;6.85;1.00;;;;;;;;;;5008437;28;20159;-81
2021/10/23 15:32:57;;;;;;;4.40;1.27;;;;;;;;;;5008474;28;20057;-81
2021/10/23 15:35:25;;;;;;;7.93;1.60;;;;;;;;;;5028137;28;20049;-81
2021/10/23 15:37:53;;;;;;;6.50;1.25;;;;;;;;;;5010748;28;20220;-81